createdAt,value
2023-04-27T00:00:17.846Z,46.40
2023-04-27T00:02:46.208Z,46.40
2023-04-27T00:05:15.895Z,46.50
2023-04-27T00:07:44.111Z,46.50
2023-04-27T00:10:12.442Z,46.50
2023-04-27T00:12:41.972Z,46.50
2023-04-27T00:15:11.409Z,46.40
2023-04-27T00:17:39.489Z,46.50
2023-04-27T00:20:11.921Z,46.40
2023-04-27T00:22:41.540Z,46.40
2023-04-27T00:25:10.186Z,46.50
2023-04-27T00:27:38.347Z,46.50
2023-04-27T00:30:08.128Z,46.50
2023-04-27T00:32:36.310Z,46.70
2023-04-27T00:35:04.684Z,46.60
2023-04-27T00:37:32.699Z,46.60
2023-04-27T00:40:02.125Z,46.70
2023-04-27T00:42:30.148Z,46.70
2023-04-27T00:44:59.232Z,46.70
2023-04-27T00:47:27.427Z,46.70
2023-04-27T00:49:55.540Z,46.70
2023-04-27T00:52:23.622Z,46.60
2023-04-27T00:54:53.390Z,46.60
2023-04-27T00:57:23.373Z,46.50
2023-04-27T00:59:51.433Z,46.60
2023-04-27T01:02:19.679Z,46.70
2023-04-27T01:04:47.877Z,46.80
2023-04-27T01:07:15.898Z,46.80
2023-04-27T01:09:44.031Z,46.80
2023-04-27T01:12:12.066Z,46.90
2023-04-27T01:14:41.456Z,46.90
2023-04-27T01:17:09.573Z,46.90
2023-04-27T01:19:38.170Z,47.00
2023-04-27T01:22:07.078Z,47.10
2023-04-27T01:24:36.592Z,47.00
2023-04-27T01:27:05.225Z,47.10
2023-04-27T01:29:33.536Z,47.20
2023-04-27T01:32:01.590Z,47.30
2023-04-27T01:34:29.762Z,47.50
2023-04-27T01:36:57.801Z,47.60
2023-04-27T01:39:26.114Z,47.60
2023-04-27T01:41:57.759Z,47.60
2023-04-27T01:44:26.500Z,47.70
2023-04-27T01:46:54.590Z,48.10
2023-04-27T01:49:22.664Z,48.00
2023-04-27T01:51:51.461Z,48.10
2023-04-27T01:54:19.497Z,48.30
2023-04-27T01:56:47.549Z,48.50
2023-04-27T01:59:16.945Z,49.20
2023-04-27T02:01:44.999Z,48.80
2023-04-27T02:04:13.316Z,48.80
2023-04-27T02:06:42.090Z,49.00
2023-04-27T02:09:10.301Z,49.00
2023-04-27T02:11:38.343Z,49.10
2023-04-27T02:14:06.393Z,49.20
2023-04-27T02:16:36.080Z,49.30
2023-04-27T02:19:04.334Z,49.40
2023-04-27T02:21:32.750Z,49.40
2023-04-27T02:24:01.809Z,49.50
2023-04-27T02:26:30.178Z,49.40
2023-04-27T02:28:58.200Z,49.50
2023-04-27T02:31:27.028Z,49.60
2023-04-27T02:33:56.478Z,49.70
2023-04-27T02:36:24.514Z,49.70
2023-04-27T02:38:52.543Z,50.40
2023-04-27T02:41:20.814Z,49.90
2023-04-27T02:43:48.853Z,49.90
2023-04-27T02:46:16.921Z,50.00
2023-04-27T02:48:44.994Z,50.00
2023-04-27T02:51:14.424Z,50.00
2023-04-27T02:53:42.503Z,50.10
2023-04-27T02:56:10.547Z,50.00
2023-04-27T02:58:38.568Z,50.00
2023-04-27T03:01:06.716Z,49.90
2023-04-27T03:03:35.036Z,50.00
2023-04-27T03:06:03.845Z,49.90
2023-04-27T03:08:33.242Z,49.70
2023-04-27T03:11:01.322Z,49.60
2023-04-27T03:13:29.348Z,49.50
2023-04-27T03:15:57.414Z,49.60
2023-04-27T03:18:25.440Z,49.60
2023-04-27T03:20:53.456Z,49.60
2023-04-27T03:23:21.480Z,49.50
2023-04-27T03:25:50.958Z,49.40
2023-04-27T03:28:19.018Z,49.40
2023-04-27T03:30:47.035Z,49.40
2023-04-27T03:33:15.467Z,49.30
2023-04-27T03:35:43.510Z,49.30
2023-04-27T03:38:11.557Z,49.20
2023-04-27T03:40:39.611Z,49.20
2023-04-27T03:43:09.008Z,49.20
2023-04-27T03:45:37.129Z,49.30
2023-04-27T03:48:05.988Z,49.20
2023-04-27T03:50:34.185Z,49.40
2023-04-27T03:53:02.244Z,49.40
2023-04-27T03:55:30.384Z,49.50
2023-04-27T03:57:58.468Z,49.70
2023-04-27T04:00:27.954Z,49.70
2023-04-27T04:02:56.702Z,49.80
2023-04-27T04:05:24.945Z,49.80
2023-04-27T04:07:52.988Z,49.80
2023-04-27T04:10:21.114Z,49.70
2023-04-27T04:12:49.207Z,49.80
2023-04-27T04:15:17.316Z,49.80
2023-04-27T04:17:47.424Z,50.50
2023-04-27T04:20:15.999Z,50.00
2023-04-27T04:22:44.521Z,50.10
2023-04-27T04:25:12.948Z,50.10
2023-04-27T04:27:41.044Z,50.30
2023-04-27T04:30:09.729Z,50.40
2023-04-27T04:32:38.839Z,50.50
2023-04-27T04:35:09.021Z,50.50
2023-04-27T04:37:37.281Z,50.50
2023-04-27T04:40:09.524Z,50.40
2023-04-27T04:42:38.265Z,50.50
2023-04-27T04:45:07.850Z,50.60
2023-04-27T04:47:36.673Z,50.60
2023-04-27T04:50:05.054Z,50.50
2023-04-27T04:52:34.503Z,50.50
2023-04-27T04:55:03.271Z,50.40
2023-04-27T04:57:31.984Z,50.40
2023-04-27T05:00:00.272Z,50.40
2023-04-27T05:02:28.477Z,50.40
2023-04-27T05:04:57.735Z,50.50
2023-04-27T05:07:26.056Z,50.50
2023-04-27T05:09:55.901Z,50.50
2023-04-27T05:12:23.961Z,50.50
2023-04-27T05:14:53.854Z,51.10
2023-04-27T05:17:22.007Z,50.70
2023-04-27T05:19:50.089Z,50.70
2023-04-27T05:22:18.130Z,50.70
2023-04-27T05:24:46.143Z,50.80
2023-04-27T05:27:15.764Z,51.00
2023-04-27T05:29:44.245Z,51.30
2023-04-27T05:32:12.304Z,51.30
2023-04-27T05:34:41.104Z,51.10
2023-04-27T05:37:09.152Z,51.40
2023-04-27T05:39:37.201Z,51.50
2023-04-27T05:42:05.613Z,51.40
2023-04-27T05:44:35.667Z,51.20
2023-04-27T05:47:03.711Z,51.50
2023-04-27T05:49:31.750Z,51.30
2023-04-27T05:52:00.001Z,51.20
2023-04-27T05:54:28.263Z,51.00
2023-04-27T05:56:56.337Z,50.80
2023-04-27T05:59:24.433Z,50.80
2023-04-27T06:01:53.921Z,50.80
2023-04-27T06:04:22.216Z,50.90
2023-04-27T06:06:50.467Z,50.70
2023-04-27T06:09:18.513Z,50.70
2023-04-27T06:11:47.463Z,50.50
2023-04-27T06:14:16.288Z,50.50
2023-04-27T06:16:44.404Z,50.20
2023-04-27T06:19:15.225Z,50.00
2023-04-27T06:21:43.691Z,50.00
2023-04-27T06:24:11.826Z,49.90
2023-04-27T06:26:39.869Z,49.80
2023-04-27T06:29:08.396Z,49.70
2023-04-27T06:31:36.487Z,49.40
2023-04-27T06:34:04.685Z,49.10
2023-04-27T06:36:34.310Z,49.00
2023-04-27T06:39:02.370Z,48.90
2023-04-27T06:41:30.439Z,48.60
2023-04-27T06:43:59.018Z,48.40
2023-04-27T06:46:27.505Z,48.30
2023-04-27T06:48:55.628Z,48.70
2023-04-27T06:51:23.680Z,47.80
2023-04-27T06:53:55.421Z,47.80
2023-04-27T06:56:23.486Z,47.60
2023-04-27T06:58:51.532Z,47.50
2023-04-27T07:01:19.695Z,47.40
2023-04-27T07:03:47.911Z,47.20
2023-04-27T07:06:16.177Z,47.20
2023-04-27T07:08:44.662Z,47.20
2023-04-27T07:11:14.488Z,47.00
2023-04-27T07:13:42.503Z,46.90
2023-04-27T07:16:10.648Z,46.90
2023-04-27T07:18:38.705Z,46.70
2023-04-27T07:21:06.975Z,46.50
2023-04-27T07:23:35.085Z,46.60
2023-04-27T07:26:03.334Z,46.70
2023-04-27T07:28:32.787Z,46.60
2023-04-27T07:31:01.354Z,46.20
2023-04-27T07:33:29.460Z,46.10
2023-04-27T07:35:57.722Z,45.80
2023-04-27T07:38:25.907Z,46.00
2023-04-27T07:40:54.581Z,46.10
2023-04-27T07:43:23.738Z,45.90
2023-04-27T07:45:54.477Z,45.70
2023-04-27T07:48:22.905Z,45.60
2023-04-27T07:50:51.011Z,45.60
2023-04-27T07:53:19.114Z,45.60
2023-04-27T07:55:47.159Z,45.70
2023-04-27T07:58:15.243Z,45.60
2023-04-27T08:00:43.435Z,45.90
2023-04-27T08:03:13.045Z,45.70
2023-04-27T08:05:41.624Z,45.80
2023-04-27T08:08:10.146Z,45.30
2023-04-27T08:10:38.338Z,45.20
2023-04-27T08:13:09.771Z,45.50
2023-04-27T08:15:37.944Z,45.00
2023-04-27T08:18:06.597Z,44.80
2023-04-27T08:20:36.036Z,44.70
2023-04-27T08:23:04.133Z,44.40
2023-04-27T08:25:32.201Z,44.30
2023-04-27T08:28:00.235Z,44.20
2023-04-27T08:30:28.339Z,43.70
2023-04-27T08:32:56.427Z,43.60
2023-04-27T08:35:24.508Z,43.20
2023-04-27T08:37:54.446Z,42.80
2023-04-27T08:40:24.748Z,42.70
2023-04-27T08:42:57.263Z,42.70
2023-04-27T08:45:26.237Z,42.60
2023-04-27T08:47:54.807Z,42.70
2023-04-27T08:50:24.379Z,42.80
2023-04-27T08:52:54.002Z,42.50
2023-04-27T08:55:22.285Z,42.30
2023-04-27T08:57:57.648Z,42.00
2023-04-27T09:00:26.868Z,41.60
2023-04-27T09:02:55.279Z,42.20
2023-04-27T09:05:24.578Z,42.20
2023-04-27T09:08:02.197Z,41.70
2023-04-27T09:10:30.411Z,41.80
2023-04-27T09:13:00.119Z,41.80
2023-04-27T09:15:29.853Z,41.70
2023-04-27T09:17:58.460Z,41.60
2023-04-27T09:20:28.558Z,41.50
2023-04-27T09:22:58.348Z,41.60
2023-04-27T09:25:29.966Z,40.90
2023-04-27T09:27:59.052Z,41.00
2023-04-27T09:30:27.679Z,41.00
2023-04-27T09:32:57.235Z,40.60
2023-04-27T09:35:27.486Z,41.20
2023-04-27T09:37:56.444Z,40.80
2023-04-27T09:40:27.752Z,40.50
2023-04-27T09:42:58.588Z,40.20
2023-04-27T09:45:27.284Z,40.30
2023-04-27T09:47:55.701Z,40.30
2023-04-27T09:50:23.851Z,40.40
2023-04-27T09:52:51.933Z,40.20
2023-04-27T09:55:25.632Z,40.10
2023-04-27T09:58:07.799Z,40.30
2023-04-27T10:00:49.405Z,40.20
2023-04-27T10:03:23.709Z,40.10
2023-04-27T10:06:38.578Z,40.20
2023-04-27T10:09:06.782Z,39.40
2023-04-27T10:11:40.563Z,39.60
2023-04-27T10:14:12.289Z,39.40
2023-04-27T10:16:47.330Z,40.00
2023-04-27T10:19:15.991Z,39.70
2023-04-27T10:22:00.420Z,39.80
2023-04-27T10:24:38.049Z,39.30
2023-04-27T10:27:07.794Z,39.40
2023-04-27T10:29:42.182Z,39.80
2023-04-27T10:32:12.452Z,39.30
2023-04-27T10:34:41.355Z,39.50
2023-04-27T10:37:11.806Z,39.00
2023-04-27T10:39:48.805Z,39.00
2023-04-27T10:42:28.668Z,39.10
2023-04-27T10:44:59.667Z,39.00
2023-04-27T10:47:38.614Z,38.90
2023-04-27T10:50:09.188Z,38.80
2023-04-27T10:52:37.272Z,38.90
2023-04-27T10:55:18.501Z,38.90
2023-04-27T10:57:51.717Z,38.50
2023-04-27T11:00:28.520Z,38.50
2023-04-27T11:02:57.978Z,38.40
2023-04-27T11:05:33.048Z,38.80
2023-04-27T11:08:08.372Z,38.80
2023-04-27T11:10:39.486Z,38.60
2023-04-27T11:13:12.301Z,38.70
2023-04-27T11:15:46.872Z,38.40
2023-04-27T11:18:15.703Z,38.40
2023-04-27T11:20:45.462Z,38.30
2023-04-27T11:23:24.502Z,38.20
2023-04-27T11:25:52.659Z,38.00
2023-04-27T11:28:21.904Z,38.20
2023-04-27T11:30:57.105Z,38.50
2023-04-27T11:33:25.326Z,37.90
2023-04-27T11:35:53.502Z,38.00
2023-04-27T11:38:22.004Z,37.80
2023-04-27T11:41:01.074Z,38.10
2023-04-27T11:43:29.285Z,37.50
2023-04-27T11:45:59.293Z,37.70
2023-04-27T11:48:28.936Z,37.50
2023-04-27T11:51:00.556Z,37.60
2023-04-27T11:53:33.132Z,37.60
2023-04-27T11:56:02.449Z,37.70
2023-04-27T11:58:31.168Z,37.70
2023-04-27T12:01:00.805Z,37.60
2023-04-27T12:03:30.769Z,37.50
2023-04-27T12:06:11.651Z,37.80
2023-04-27T12:08:44.765Z,37.90
2023-04-27T12:11:13.100Z,37.70
2023-04-27T12:13:41.474Z,37.50
2023-04-27T12:16:11.416Z,37.40
2023-04-27T12:18:39.449Z,37.50
2023-04-27T12:21:08.477Z,37.60
2023-04-27T12:23:37.058Z,37.60
2023-04-27T12:26:05.234Z,37.30
2023-04-27T12:28:33.315Z,37.20
2023-04-27T12:31:03.992Z,37.50
2023-04-27T12:33:33.556Z,37.80
2023-04-27T12:36:01.645Z,37.70
2023-04-27T12:38:29.719Z,37.40
2023-04-27T12:40:57.820Z,37.90
2023-04-27T12:43:26.375Z,37.80
2023-04-27T12:45:54.522Z,37.70
2023-04-27T12:48:23.580Z,37.70
2023-04-27T12:50:53.127Z,37.60
2023-04-27T12:53:21.742Z,37.50
2023-04-27T12:55:49.848Z,37.70
2023-04-27T12:58:17.924Z,37.60
2023-04-27T13:00:46.461Z,37.50
2023-04-27T13:03:14.673Z,37.50
2023-04-27T13:05:44.431Z,37.40
2023-04-27T13:08:13.880Z,37.30
2023-04-27T13:10:42.403Z,37.00
2023-04-27T13:13:10.673Z,37.10
2023-04-27T13:15:38.848Z,37.20
2023-04-27T13:18:07.314Z,37.20
2023-04-27T13:20:36.265Z,37.00
2023-04-27T13:23:06.077Z,37.20
2023-04-27T13:25:35.618Z,37.20
2023-04-27T13:28:03.689Z,37.00
2023-04-27T13:30:32.200Z,37.00
2023-04-27T13:33:14.139Z,37.20
2023-04-27T13:35:49.050Z,37.10
2023-04-27T13:38:17.098Z,37.30
2023-04-27T13:40:46.541Z,37.10
2023-04-27T13:43:14.615Z,37.30
2023-04-27T13:45:42.857Z,37.20
2023-04-27T13:48:11.034Z,37.40
2023-04-27T13:50:39.395Z,37.60
2023-04-27T13:53:07.455Z,37.50
2023-04-27T13:55:36.554Z,37.50
2023-04-27T13:58:06.148Z,37.70
2023-04-27T14:00:34.803Z,37.30
2023-04-27T14:03:04.925Z,37.40
2023-04-27T14:05:33.263Z,37.50
2023-04-27T14:08:01.444Z,37.40
2023-04-27T14:10:29.463Z,37.20
2023-04-27T14:12:58.500Z,37.20
2023-04-27T14:15:28.914Z,37.50
2023-04-27T14:17:57.037Z,37.60
2023-04-27T14:20:27.203Z,37.70
2023-04-27T14:22:58.301Z,37.50
2023-04-27T14:25:27.318Z,37.30
2023-04-27T14:27:55.596Z,37.30
2023-04-27T14:30:23.978Z,37.10
2023-04-27T14:32:53.497Z,37.00
2023-04-27T14:35:23.573Z,36.90
2023-04-27T14:37:52.091Z,37.00
2023-04-27T14:40:20.844Z,37.20
2023-04-27T14:42:48.903Z,37.10
2023-04-27T14:45:18.257Z,37.00
2023-04-27T14:47:46.456Z,37.20
2023-04-27T14:50:16.103Z,37.30
2023-04-27T14:52:44.174Z,37.40
2023-04-27T14:55:13.605Z,37.30
2023-04-27T14:57:41.680Z,37.20
2023-04-27T15:00:11.098Z,37.00
2023-04-27T15:02:39.230Z,37.10
2023-04-27T15:05:08.090Z,37.20
2023-04-27T15:07:37.517Z,37.20
2023-04-27T15:10:06.307Z,37.00
2023-04-27T15:12:34.421Z,37.20
2023-04-27T15:15:02.478Z,37.20
2023-04-27T15:17:30.684Z,37.10
2023-04-27T15:19:58.860Z,37.20
2023-04-27T15:22:28.546Z,37.30
2023-04-27T15:24:58.037Z,37.50
2023-04-27T15:27:27.522Z,37.00
2023-04-27T15:29:55.718Z,36.80
2023-04-27T15:32:29.752Z,37.00
2023-04-27T15:34:58.554Z,37.30
2023-04-27T15:37:27.974Z,37.30
2023-04-27T15:39:57.555Z,36.90
2023-04-27T15:42:25.945Z,36.60
2023-04-27T15:44:53.985Z,36.90
2023-04-27T15:47:22.361Z,36.70
2023-04-27T15:49:57.427Z,37.00
2023-04-27T15:52:27.001Z,36.80
2023-04-27T15:54:57.231Z,36.90
2023-04-27T15:57:25.425Z,37.10
2023-04-27T15:59:53.609Z,37.00
2023-04-27T16:02:21.821Z,37.20
2023-04-27T16:04:50.287Z,37.50
2023-04-27T16:07:18.308Z,37.60
2023-04-27T16:09:46.427Z,37.70
2023-04-27T16:12:15.867Z,38.00
2023-04-27T16:14:43.908Z,37.50
2023-04-27T16:17:11.952Z,37.30
2023-04-27T16:19:39.997Z,37.90
2023-04-27T16:22:08.053Z,37.70
2023-04-27T16:24:36.356Z,37.50
2023-04-27T16:27:04.700Z,37.70
2023-04-27T16:29:34.244Z,37.50
2023-04-27T16:32:02.624Z,37.60
2023-04-27T16:34:30.798Z,37.50
2023-04-27T16:36:58.884Z,37.70
2023-04-27T16:39:27.059Z,37.90
2023-04-27T16:41:55.272Z,38.20
2023-04-27T16:44:23.733Z,38.20
2023-04-27T16:46:53.136Z,38.10
2023-04-27T16:49:21.235Z,37.80
2023-04-27T16:51:49.287Z,38.10
2023-04-27T16:54:17.562Z,38.10
2023-04-27T16:56:46.531Z,38.00
2023-04-27T16:59:14.845Z,38.20
2023-04-27T17:01:43.138Z,38.50
2023-04-27T17:04:12.823Z,38.30
2023-04-27T17:06:41.770Z,38.00
2023-04-27T17:09:10.299Z,38.60
2023-04-27T17:11:38.350Z,38.80
2023-04-27T17:14:06.390Z,38.70
2023-04-27T17:16:34.475Z,38.60
2023-04-27T17:19:02.520Z,38.50
2023-04-27T17:21:32.470Z,38.60
2023-04-27T17:24:00.537Z,38.70
2023-04-27T17:26:28.690Z,38.50
2023-04-27T17:28:59.977Z,38.70
2023-04-27T17:31:28.256Z,38.80
2023-04-27T17:33:56.403Z,38.90
2023-04-27T17:36:24.448Z,38.80
2023-04-27T17:38:53.982Z,39.00
2023-04-27T17:41:22.269Z,39.10
2023-04-27T17:43:50.959Z,39.20
2023-04-27T17:46:19.012Z,39.60
2023-04-27T17:48:47.062Z,39.80
2023-04-27T17:51:15.733Z,40.10
2023-04-27T17:53:43.789Z,40.20
2023-04-27T17:56:13.218Z,40.10
2023-04-27T17:58:41.262Z,40.20
2023-04-27T18:01:11.368Z,40.20
2023-04-27T18:03:39.789Z,40.30
2023-04-27T18:06:08.327Z,40.20
2023-04-27T18:08:36.493Z,40.30
2023-04-27T18:11:04.689Z,40.40
2023-04-27T18:13:34.183Z,40.60
2023-04-27T18:16:02.305Z,40.50
2023-04-27T18:18:30.592Z,40.60
2023-04-27T18:20:58.631Z,40.60
2023-04-27T18:23:27.014Z,40.50
2023-04-27T18:25:58.773Z,40.50
2023-04-27T18:28:26.872Z,40.60
2023-04-27T18:30:56.323Z,40.70
2023-04-27T18:33:24.380Z,40.60
2023-04-27T18:35:52.433Z,40.70
2023-04-27T18:38:20.461Z,40.60
2023-04-27T18:40:48.723Z,40.70
2023-04-27T18:43:16.837Z,40.80
2023-04-27T18:45:44.928Z,40.80
2023-04-27T18:48:14.395Z,40.90
2023-04-27T18:50:42.571Z,41.10
2023-04-27T18:53:10.641Z,41.10
2023-04-27T18:55:39.472Z,41.10
2023-04-27T18:58:07.560Z,41.10
2023-04-27T19:00:35.612Z,41.00
2023-04-27T19:03:03.773Z,41.00
2023-04-27T19:05:33.492Z,41.30
2023-04-27T19:08:01.785Z,41.50
2023-04-27T19:10:29.890Z,41.50
2023-04-27T19:12:57.934Z,41.50
2023-04-27T19:15:26.106Z,41.70
2023-04-27T19:18:02.720Z,41.70
2023-04-27T19:20:39.787Z,41.80
2023-04-27T19:23:09.442Z,41.80
2023-04-27T19:25:37.655Z,42.10
2023-04-27T19:28:06.059Z,42.20
2023-04-27T19:30:34.179Z,42.50
2023-04-27T19:33:02.439Z,42.60
2023-04-27T19:35:30.560Z,42.60
2023-04-27T19:38:00.062Z,42.70
2023-04-27T19:40:28.180Z,42.70
2023-04-27T19:42:56.261Z,42.80
2023-04-27T19:45:24.323Z,43.00
2023-04-27T19:47:54.066Z,43.20
2023-04-27T19:50:22.443Z,43.10
2023-04-27T19:52:50.581Z,43.10
2023-04-27T19:55:20.087Z,43.10
2023-04-27T19:57:48.265Z,43.30
2023-04-27T20:00:17.036Z,43.20
2023-04-27T20:02:45.281Z,43.30
2023-04-27T20:05:13.862Z,43.10
2023-04-27T20:07:42.369Z,43.20
2023-04-27T20:10:10.710Z,43.20
2023-04-27T20:12:54.622Z,43.30
2023-04-27T20:15:24.144Z,43.60
2023-04-27T20:17:52.273Z,43.50
2023-04-27T20:20:20.713Z,43.80
2023-04-27T20:22:50.824Z,43.90
2023-04-27T20:25:19.625Z,44.00
2023-04-27T20:27:49.241Z,43.90
2023-04-27T20:30:17.288Z,43.80
2023-04-27T20:32:46.551Z,43.80
2023-04-27T20:35:15.350Z,44.10
2023-04-27T20:37:43.697Z,44.10
2023-04-27T20:40:17.913Z,44.20
2023-04-27T20:42:49.381Z,44.30
2023-04-27T20:45:18.761Z,44.50
2023-04-27T20:47:47.061Z,44.40
2023-04-27T20:50:15.376Z,44.30
2023-04-27T20:52:43.476Z,44.40
2023-04-27T20:55:13.947Z,44.50
2023-04-27T20:57:42.179Z,44.60
2023-04-27T21:00:14.324Z,49.30
2023-04-27T21:02:42.511Z,50.10
2023-04-27T21:05:11.585Z,49.10
2023-04-27T21:07:39.683Z,48.50
2023-04-27T21:10:08.745Z,48.00
2023-04-27T21:12:36.988Z,47.20
2023-04-27T21:15:05.505Z,46.50
2023-04-27T21:17:35.021Z,45.50
2023-04-27T21:20:04.763Z,44.10
2023-04-27T21:22:32.819Z,43.50
2023-04-27T21:25:00.879Z,43.00
2023-04-27T21:27:29.613Z,42.60
2023-04-27T21:29:59.142Z,42.50
2023-04-27T21:32:27.292Z,42.60
2023-04-27T21:34:56.738Z,42.60
2023-04-27T21:37:24.891Z,42.60
2023-04-27T21:39:52.942Z,42.80
2023-04-27T21:42:21.023Z,42.90
2023-04-27T21:44:49.082Z,43.00
2023-04-27T21:47:17.137Z,43.10
2023-04-27T21:49:45.243Z,43.20
2023-04-27T21:52:14.701Z,43.50
2023-04-27T21:54:42.848Z,44.00
2023-04-27T21:57:10.924Z,44.50
2023-04-27T21:59:38.953Z,44.80
2023-04-27T22:02:07.061Z,45.00
2023-04-27T22:04:38.324Z,45.10
2023-04-27T22:07:06.753Z,45.30
2023-04-27T22:09:36.634Z,45.10
2023-04-27T22:12:05.262Z,45.00
2023-04-27T22:14:33.302Z,44.70
2023-04-27T22:17:01.537Z,44.60
2023-04-27T22:19:30.496Z,44.60
2023-04-27T22:21:58.738Z,44.60
2023-04-27T22:24:26.765Z,44.60
2023-04-27T22:26:56.177Z,44.70
2023-04-27T22:29:24.250Z,44.80
2023-04-27T22:31:52.813Z,44.90
2023-04-27T22:34:21.032Z,45.00
2023-04-27T22:36:49.146Z,45.10
2023-04-27T22:39:17.200Z,45.00
2023-04-27T22:41:45.890Z,45.20
2023-04-27T22:44:15.634Z,45.20
2023-04-27T22:46:44.258Z,45.40
2023-04-27T22:49:12.322Z,45.50
2023-04-27T22:51:40.371Z,45.90
2023-04-27T22:54:08.425Z,46.30
2023-04-27T22:56:36.483Z,46.30
2023-04-27T22:59:04.607Z,46.50
2023-04-27T23:01:34.059Z,46.50
2023-04-27T23:04:02.320Z,46.60
2023-04-27T23:06:30.636Z,46.70
2023-04-27T23:08:59.150Z,46.90
2023-04-27T23:11:28.587Z,46.80
2023-04-27T23:13:57.474Z,46.80
2023-04-27T23:16:25.713Z,46.60
2023-04-27T23:18:55.200Z,46.60
2023-04-27T23:21:23.266Z,46.50
2023-04-27T23:23:51.310Z,46.40
2023-04-27T23:26:19.495Z,46.50
2023-04-27T23:28:48.136Z,46.50
2023-04-27T23:31:16.295Z,46.40
2023-04-27T23:33:44.371Z,46.50
2023-04-27T23:36:13.773Z,46.50
2023-04-27T23:38:41.822Z,46.60
2023-04-27T23:41:09.853Z,46.60
2023-04-27T23:43:37.910Z,46.80
2023-04-27T23:46:07.194Z,46.80
2023-04-27T23:48:35.294Z,46.80
2023-04-27T23:51:04.845Z,46.90
2023-04-27T23:53:34.273Z,46.90
2023-04-27T23:56:02.332Z,46.90
2023-04-27T23:58:30.896Z,47.00
